Time;durP1;ratioP1;P1;durP2;ratioP2;P2;SDS_P1;SDS_P2;PMS_P1;PMS_P2;Temp;Humidity;BMP_temperature;BMP_pressure;BME280_temperature;BME280_humidity;BME280_pressure;Samples;Min_cycle;Max_cycle;Signal;HPM_P1;HPM_P2
2022/04/04 00:01:19;;;;;;;15.15;8.73;;;;;;;-2.05;89.90;101826.38;10489844;28;20057;-79
2022/04/04 00:06:19;;;;;;;18.35;8.50;;;;;;;-1.86;89.74;101825.16;10448991;28;20476;-78
2022/04/04 00:11:20;;;;;;;11.77;7.80;;;;;;;-1.84;89.09;101805.69;10479099;28;20055;-79
2022/04/04 00:16:20;;;;;;;13.45;8.98;;;;;;;-1.91;89.40;101808.31;10478732;28;20029;-79
2022/04/04 00:21:21;;;;;;;16.60;10.90;;;;;;;-1.84;89.37;101799.66;10459850;28;20029;-78
2022/04/04 00:26:21;;;;;;;16.02;9.10;;;;;;;-1.73;88.81;101798.28;10488359;28;20059;-78
2022/04/04 00:31:22;;;;;;;12.77;7.35;;;;;;;-1.59;87.96;101794.72;10489300;28;20060;-79
2022/04/04 00:36:22;;;;;;;17.88;9.25;;;;;;;-1.64;87.81;101794.19;10470487;28;20135;-79
2022/04/04 00:41:24;;;;;;;15.63;8.45;;;;;;;-1.81;87.76;101787.19;10490535;28;20065;-79
2022/04/04 00:46:24;;;;;;;14.80;9.53;;;;;;;-1.66;88.43;101785.41;10475566;28;20071;-78
2022/04/04 00:51:25;;;;;;;13.48;8.18;;;;;;;-1.55;88.51;101773.78;10476197;28;20381;-78
2022/04/04 00:56:29;;;;;;;12.75;9.68;;;;;;;-1.55;87.98;101769.53;10479406;28;20037;-78
2022/04/04 01:01:30;;;;;;;13.02;8.48;;;;;;;-1.28;88.52;101768.19;10459203;28;20093;-78
2022/04/04 01:06:33;;;;;;;15.43;10.48;;;;;;;-1.07;88.30;101755.84;10502265;28;20476;-78
2022/04/04 01:11:35;;;;;;;15.73;8.98;;;;;;;-0.85;87.81;101750.47;10442621;28;20127;-78
2022/04/04 01:16:35;;;;;;;14.30;8.77;;;;;;;-0.59;86.34;101740.41;10477715;28;20020;-78
2022/04/04 01:21:36;;;;;;;12.73;9.27;;;;;;;-0.54;85.42;101735.72;10477723;28;20800;-78
2022/04/04 01:26:36;;;;;;;12.88;7.90;;;;;;;-0.59;84.91;101730.13;10480792;28;20163;-78
2022/04/04 01:31:37;;;;;;;19.77;8.48;;;;;;;-0.49;84.02;101721.69;10460538;28;20085;-79
2022/04/04 01:36:37;;;;;;;12.38;7.20;;;;;;;-0.62;83.61;101716.94;10475620;28;20056;-79
2022/04/04 01:41:38;;;;;;;16.70;9.30;;;;;;;-0.54;84.21;101705.81;10451562;28;20053;-78
2022/04/04 01:46:38;;;;;;;13.75;7.55;;;;;;;-0.48;83.25;101692.66;10471749;28;20508;-78
2022/04/04 01:51:39;;;;;;;10.95;7.40;;;;;;;-0.58;83.99;101693.38;10458111;28;20074;-79
2022/04/04 01:56:41;;;;;;;9.80;6.60;;;;;;;-0.49;83.51;101673.75;10440956;28;20037;-78
2022/04/04 02:01:42;;;;;;;;;;;;;;;-0.57;82.92;101671.13;10488729;28;20044;-79
2022/04/04 02:06:43;;;;;;;12.98;6.57;;;;;;;-0.48;83.73;101659.22;10491434;28;19958;-78
2022/04/04 02:11:43;;;;;;;9.95;6.72;;;;;;;-0.25;81.98;101648.78;10471080;28;20064;-78
2022/04/04 02:16:45;;;;;;;12.10;7.10;;;;;;;-0.24;81.23;101644.53;10457699;28;20465;-78
2022/04/04 02:21:45;;;;;;;14.50;8.00;;;;;;;-0.35;81.66;101640.84;10456852;28;20054;-77
2022/04/04 02:26:46;;;;;;;9.65;6.38;;;;;;;-0.58;81.85;101630.72;10465633;28;20059;-78
2022/04/04 02:31:47;;;;;;;9.98;6.80;;;;;;;-0.59;82.18;101627.25;10474841;28;20529;-78
2022/04/04 02:36:47;;;;;;;15.85;7.93;;;;;;;-0.59;82.31;101619.53;10491105;28;20105;-78
2022/04/04 02:41:48;;;;;;;9.73;5.72;;;;;;;-0.60;81.70;101612.59;10474996;28;20131;-78
2022/04/04 02:46:48;;;;;;;10.95;5.90;;;;;;;-0.66;82.13;101610.25;10488816;28;20110;-78
2022/04/04 02:51:49;;;;;;;9.80;5.75;;;;;;;-0.67;81.47;101597.25;10470103;28;20612;-78
2022/04/04 02:56:49;;;;;;;16.15;7.43;;;;;;;-0.73;82.16;101589.81;10476551;28;20080;-78
2022/04/04 03:01:50;;;;;;;10.52;5.85;;;;;;;-0.68;81.46;101570.63;10472217;28;20036;-78
2022/04/04 03:06:50;;;;;;;8.15;5.78;;;;;;;-0.58;81.04;101559.66;10479532;28;20120;-78
2022/04/04 03:11:51;;;;;;;11.93;7.20;;;;;;;-0.54;80.76;101546.34;10477084;28;20058;-78
2022/04/04 03:16:51;;;;;;;9.55;5.68;;;;;;;-0.40;79.80;101532.31;10457300;28;20602;-78
2022/04/04 03:21:54;;;;;;;9.48;5.80;;;;;;;-0.16;78.85;101513.34;10481690;28;20095;-78
2022/04/04 03:26:54;;;;;;;10.88;7.10;;;;;;;-0.07;78.58;101517.59;10479786;28;20058;-78
2022/04/04 03:31:55;;;;;;;11.10;6.93;;;;;;;0.03;78.34;101506.53;10464347;28;20021;-83
2022/04/04 03:36:56;;;;;;;12.77;6.32;;;;;;;0.21;77.44;101495.50;10461799;28;20512;-77
2022/04/04 03:41:58;;;;;;;10.18;5.70;;;;;;;0.40;76.06;101492.19;10472030;28;20064;-77
2022/04/04 03:46:58;;;;;;;16.35;7.07;;;;;;;0.43;76.46;101477.94;10480098;28;20468;-78
2022/04/04 03:51:59;;;;;;;10.10;7.60;;;;;;;0.42;76.20;101475.22;10481496;28;20046;-78
2022/04/04 03:57:00;;;;;;;16.90;7.25;;;;;;;0.39;76.07;101467.19;10479513;28;20028;-77
2022/04/04 04:02:00;;;;;;;10.73;5.18;;;;;;;0.32;76.41;101457.97;10471197;28;20043;-77
2022/04/04 04:07:01;;;;;;;11.95;7.80;;;;;;;0.34;76.71;101453.88;10489937;28;20060;-78
2022/04/04 04:12:01;;;;;;;9.73;6.78;;;;;;;0.31;76.50;101443.28;10476373;28;20498;-78
2022/04/04 04:17:02;;;;;;;10.77;6.45;;;;;;;0.26;76.77;101434.19;10492565;28;20068;-76
2022/04/04 04:22:03;;;;;;;11.18;6.93;;;;;;;0.24;77.04;101434.03;10471967;28;20078;-78
2022/04/04 04:27:04;;;;;;;11.48;7.43;;;;;;;0.30;76.25;101423.44;10461268;28;20770;-79
2022/04/04 04:32:05;;;;;;;16.33;7.47;;;;;;;0.26;76.53;101421.31;10470505;28;20032;-78
2022/04/04 04:37:06;;;;;;;15.20;9.57;;;;;;;0.29;77.06;101421.63;10460349;28;20031;-76
2022/04/04 04:42:06;;;;;;;12.77;7.60;;;;;;;0.27;76.81;101411.16;10477767;28;20047;-77
2022/04/04 04:47:07;;;;;;;13.40;7.90;;;;;;;0.31;76.77;101409.78;10475350;28;20045;-77
2022/04/04 04:52:08;;;;;;;14.93;9.25;;;;;;;0.34;77.29;101394.66;10491124;28;20667;-79
2022/04/04 04:57:09;;;;;;;14.90;8.68;;;;;;;0.31;77.62;101389.19;10502638;28;20038;-78
2022/04/04 05:02:09;;;;;;;13.85;8.88;;;;;;;0.40;77.52;101389.16;10494215;28;20174;-79
2022/04/04 05:07:10;;;;;;;13.80;8.05;;;;;;;0.48;76.38;101380.50;10472929;28;20021;-81
2022/04/04 05:12:11;;;;;;;13.48;8.23;;;;;;;0.48;76.34;101367.63;10455710;28;20020;-77
2022/04/04 05:17:12;;;;;;;11.90;7.87;;;;;;;0.55;76.92;101366.56;10477790;28;20365;-77
2022/04/04 05:22:14;;;;;;;17.27;9.43;;;;;;;0.59;76.71;101360.94;10475743;28;20302;-77
2022/04/04 05:27:14;;;;;;;18.35;8.60;;;;;;;0.68;76.57;101345.44;10488563;28;20060;-77
2022/04/04 05:32:15;;;;;;;20.25;10.70;;;;;;;0.74;77.26;101333.13;10486649;28;20491;-77
2022/04/04 05:37:15;;;;;;;18.98;10.48;;;;;;;0.83;76.55;101322.81;10478152;28;20068;-77
2022/04/04 05:42:16;;;;;;;17.77;10.90;;;;;;;0.91;77.14;101311.53;10476015;28;20039;-76
2022/04/04 05:47:20;;;;;;;18.90;11.75;;;;;;;1.01;76.89;101310.72;10491860;28;20080;-77
2022/04/04 05:52:23;;;;;;;17.38;9.43;;;;;;;1.22;77.39;101296.34;10491764;28;20634;-77
2022/04/04 05:57:24;;;;;;;15.75;9.57;;;;;;;1.70;75.75;101287.75;10486825;28;20110;-77
2022/04/04 06:02:26;;;;;;;18.17;9.93;;;;;;;2.62;73.53;101257.88;10469358;28;20032;-78
2022/04/04 06:07:27;;;;;;;15.75;9.90;;;;;;;3.41;69.78;101260.97;10473890;28;20483;-77
2022/04/04 06:12:28;;;;;;;21.30;11.45;;;;;;;3.36;70.29;101254.50;10458569;28;20040;-75
2022/04/04 06:17:29;;;;;;;17.83;10.97;;;;;;;3.55;69.22;101243.09;10469765;28;20105;-77
2022/04/04 06:22:36;;;;;;;19.25;11.43;;;;;;;3.64;68.82;101220.53;10475497;28;20029;-77
2022/04/04 06:27:37;;;;;;;14.93;10.32;;;;;;;3.72;69.20;101223.78;10475739;28;20045;-76
2022/04/04 06:32:43;;;;;;;19.73;12.10;;;;;;;3.73;69.41;101203.16;10467269;28;20535;-77
2022/04/04 06:37:45;;;;;;;17.60;9.80;;;;;;;4.09;67.73;101199.13;10466760;28;20059;-77
2022/04/04 06:42:46;;;;;;;11.70;8.07;;;;;;;4.25;67.63;101183.09;10472815;28;20476;-77
2022/04/04 06:47:47;;;;;;;18.42;10.30;;;;;;;4.41;66.41;101176.53;10462795;28;20148;-76
2022/04/04 06:52:47;;;;;;;12.70;7.90;;;;;;;4.27;67.14;101167.66;10487659;28;20025;-76
2022/04/04 06:57:48;;;;;;;13.75;8.80;;;;;;;4.06;67.90;101164.31;10486620;28;20053;-76
2022/04/04 07:02:53;;;;;;;14.93;7.88;;;;;;;4.18;68.08;101157.50;10476991;28;20036;-77
2022/04/04 07:07:54;;;;;;;12.75;7.43;;;;;;;4.55;67.21;101146.47;10491771;28;20392;-77
2022/04/04 07:12:54;;;;;;;14.60;8.05;;;;;;;4.87;65.61;101136.75;10493934;28;20070;-77
2022/04/04 07:17:54;;;;;;;9.43;8.43;;;;;;;5.20;65.06;101138.31;10493690;28;20107;-76
2022/04/04 07:22:55;;;;;;;11.25;7.35;;;;;;;4.91;64.73;101134.47;10479739;28;20481;-75
2022/04/04 07:27:55;;;;;;;12.98;8.95;;;;;;;5.24;64.47;101117.00;10483769;28;20139;-76
2022/04/04 07:32:56;;;;;;;12.05;7.57;;;;;;;6.09;61.60;101114.34;10480077;28;20077;-77
2022/04/04 07:37:57;;;;;;;19.70;9.00;;;;;;;6.19;61.62;101102.91;10490232;28;20171;-78
2022/04/04 07:42:58;;;;;;;14.40;8.18;;;;;;;6.18;62.08;101114.13;10488813;28;20105;-77
2022/04/04 07:47:58;;;;;;;13.35;7.25;;;;;;;6.25;61.11;101110.22;10482929;28;20090;-77
2022/04/04 07:52:59;;;;;;;14.32;7.45;;;;;;;5.98;61.33;101099.69;10482226;28;20700;-78
2022/04/04 07:57:59;;;;;;;17.63;8.23;;;;;;;5.82;61.88;101072.63;10479232;28;20067;-77
2022/04/04 08:03:00;;;;;;;13.48;7.65;;;;;;;6.16;60.74;101053.34;10493574;28;20441;-78
2022/04/04 08:08:00;;;;;;;12.95;7.40;;;;;;;6.64;60.08;101053.03;10488435;28;20036;-77
2022/04/04 08:13:01;;;;;;;15.13;8.75;;;;;;;7.32;58.69;101057.44;10472900;28;20601;-78
2022/04/04 08:18:03;;;;;;;14.63;7.68;;;;;;;7.23;57.31;101036.91;10472914;28;20047;-78
2022/04/04 08:23:04;;;;;;;;;;;;;;;6.72;58.94;101037.13;10465819;28;20464;-78
2022/04/04 08:28:05;;;;;;;14.02;8.70;;;;;;;6.57;58.73;101030.91;10482235;28;19924;-78
2022/04/04 08:33:05;;;;;;;22.48;9.50;;;;;;;6.83;58.01;101022.22;10480596;28;20074;-79
2022/04/04 08:38:06;;;;;;;15.55;8.85;;;;;;;6.88;58.43;101009.50;10496234;28;20645;-77
2022/04/04 08:43:09;;;;;;;11.45;6.32;;;;;;;6.71;58.51;101000.63;10494734;28;20037;-77
2022/04/04 08:48:10;;;;;;;16.55;7.55;;;;;;;6.81;58.16;101002.09;10479566;28;20143;-78
2022/04/04 08:53:11;;;;;;;19.17;7.53;;;;;;;6.74;58.77;100993.03;10452511;28;20144;-77
2022/04/04 08:58:11;;;;;;;16.65;9.65;;;;;;;6.58;59.01;100966.00;10448663;28;20674;-80
2022/04/04 09:03:19;;;;;;;20.48;6.97;;;;;;;6.24;58.99;100966.38;10501418;28;20435;-79
2022/04/04 09:08:20;;;;;;;17.10;7.00;;;;;;;6.30;60.06;100959.00;10451888;28;20051;-83
2022/04/04 09:13:20;;;;;;;16.42;6.97;;;;;;;6.19;61.39;100956.47;10472429;28;21557;-78
2022/04/04 09:18:36;;;;;;;19.23;8.75;;;;;;;6.11;61.95;100924.78;10484677;28;20035;-79
2022/04/04 09:23:46;;;;;;;23.75;9.55;;;;;;;6.19;62.45;100927.88;10493385;28;20470;-77
2022/04/04 09:28:46;;;;;;;20.63;8.05;;;;;;;6.09;61.79;100919.47;10482715;28;20397;-77
2022/04/04 09:33:47;;;;;;;26.25;9.90;;;;;;;6.22;61.50;100912.47;10469037;28;20039;-78
2022/04/04 09:39:03;;;;;;;17.97;9.63;;;;;;;6.19;62.14;100922.66;10476448;28;20167;-79
2022/04/04 09:44:05;;;;;;;12.65;7.20;;;;;;;6.21;62.57;100908.06;10457497;28;20539;-77
2022/04/04 09:49:13;;;;;;;18.77;8.17;;;;;;;6.31;64.27;100902.69;10468878;28;20540;-78
2022/04/04 09:54:19;;;;;;;16.02;8.10;;;;;;;6.32;64.88;100908.00;10460306;28;20111;-78
2022/04/04 09:59:20;;;;;;;13.25;7.43;;;;;;;6.00;65.18;100827.88;10469795;28;20036;-79
2022/04/04 10:04:22;;;;;;;12.63;8.23;;;;;;;5.79;68.13;100885.41;10493334;28;20064;-78
2022/04/04 10:09:24;;;;;;;14.55;9.25;;;;;;;5.34;72.05;100890.19;10456332;28;20078;-79
2022/04/04 10:14:25;;;;;;;19.83;9.87;;;;;;;4.98;74.02;100879.91;10478000;28;20020;-78
2022/04/04 10:19:27;;;;;;;12.75;8.23;;;;;;;4.61;76.80;100866.06;10457361;28;20063;-78
2022/04/04 10:24:27;;;;;;;15.95;9.88;;;;;;;4.51;79.24;100862.81;10492184;28;20395;-77
2022/04/04 10:29:39;;;;;;;94.32;20.02;;;;;;;4.17;80.31;100862.03;10469936;28;20056;-78
2022/04/04 10:34:44;;;;;;;16.80;10.02;;;;;;;3.87;82.68;100848.63;10489744;28;20028;-77
2022/04/04 10:39:47;;;;;;;17.70;12.13;;;;;;;3.68;84.58;100842.06;10485074;28;20036;-78
2022/04/04 10:44:49;;;;;;;20.85;13.88;;;;;;;3.60;85.69;100857.03;10488017;28;20028;-78
2022/04/04 10:49:50;;;;;;;17.60;13.20;;;;;;;3.53;86.55;100853.06;10505543;28;20143;-77
2022/04/04 10:54:52;;;;;;;19.20;13.07;;;;;;;3.50;87.41;100831.25;10490440;28;20079;-78
2022/04/04 10:59:56;;;;;;;;;;;;;;;3.46;87.75;100850.81;10487261;28;20049;-77
2022/04/04 11:10:48;;;;;;;20.27;13.50;;;;;;;3.43;87.80;100829.88;10488647;28;20045;-77
2022/04/04 11:15:55;;;;;;;20.02;15.20;;;;;;;3.46;88.02;100835.28;10430813;28;20120;-77
2022/04/04 11:21:03;;;;;;;21.42;15.65;;;;;;;3.44;87.31;100834.25;10482372;28;20028;-76
2022/04/04 11:31:47;;;;;;;19.50;13.32;;;;;;;3.41;86.77;100818.50;10484429;28;20480;-76
2022/04/04 11:36:48;;;;;;;20.65;14.05;;;;;;;3.42;86.67;100804.78;10482764;28;20032;-76
2022/04/04 11:42:11;;;;;;;;;;;;;;;;;;;;;
2022/04/04 11:47:32;;;;;;;19.58;14.05;;;;;;;3.58;86.32;100793.00;10437367;28;20124;-76
2022/04/04 11:53:05;;;;;;;19.67;12.52;;;;;;;3.69;86.24;100786.03;10495262;28;20082;-76
2022/04/04 11:58:37;;;;;;;15.23;11.75;;;;;;;3.70;85.48;100787.84;10435463;28;21781;-77
2022/04/04 12:03:43;;;;;;;16.53;12.37;;;;;;;3.66;85.20;100790.19;10481469;28;20060;-77
2022/04/04 12:08:44;;;;;;;13.73;10.50;;;;;;;3.69;84.83;100786.91;10493948;28;20040;-77
2022/04/04 12:13:56;;;;;;;16.67;12.30;;;;;;;3.64;85.68;100750.34;10475725;28;20021;-76
2022/04/04 12:19:00;;;;;;;15.82;11.02;;;;;;;3.63;85.02;100771.84;10447904;28;20049;-78
2022/04/04 12:29:26;;;;;;;17.50;13.80;;;;;;;3.46;85.60;100754.19;10482769;28;20032;-77
2022/04/04 12:34:26;;;;;;;15.50;12.57;;;;;;;3.54;86.88;100734.94;10435233;28;20021;-77
2022/04/04 12:39:30;;;;;;;19.40;14.65;;;;;;;3.64;86.15;100741.69;10482367;28;20070;-78
2022/04/04 12:44:32;;;;;;;16.67;11.80;;;;;;;3.77;85.75;100734.03;10475422;28;20045;-77
2022/04/04 12:49:37;;;;;;;15.93;12.50;;;;;;;3.71;85.51;100735.28;10478648;28;20051;-78
2022/04/04 12:54:40;;;;;;;16.38;13.32;;;;;;;3.59;85.90;100735.25;10491675;28;20037;-78
2022/04/04 12:59:53;;;;;;;21.08;12.68;;;;;;;3.63;84.94;100724.34;10463485;28;20025;-78
2022/04/04 13:05:13;;;;;;;20.50;13.63;;;;;;;3.64;85.19;100724.47;10475752;28;20032;-78
2022/04/04 13:10:14;;;;;;;15.55;11.63;;;;;;;3.75;84.39;100724.34;10483273;28;20028;-77
2022/04/04 13:15:33;;;;;;;22.92;11.77;;;;;;;3.78;84.62;100703.88;10483843;28;20460;-77
2022/04/04 13:20:36;;;;;;;15.05;11.00;;;;;;;3.72;84.70;100696.53;10447775;28;20071;-82
2022/04/04 13:25:39;;;;;;;15.90;12.27;;;;;;;3.68;85.60;100681.59;10475251;28;20043;-80
2022/04/04 13:30:44;;;;;;;20.60;13.15;;;;;;;3.67;85.76;100690.13;10464182;28;20033;-78
2022/04/04 13:35:50;;;;;;;18.83;12.80;;;;;;;3.62;86.28;100676.88;10477889;28;20028;-78
2022/04/04 13:41:00;;;;;;;17.27;12.13;;;;;;;3.58;87.19;100673.94;10467081;28;20047;-77
2022/04/04 13:46:03;;;;;;;16.35;11.32;;;;;;;3.67;87.71;100664.25;10474795;28;20029;-78
2022/04/04 13:51:03;;;;;;;19.67;12.17;;;;;;;3.76;87.24;100632.97;10458679;28;20054;-81
2022/04/04 13:56:05;;;;;;;16.25;12.63;;;;;;;3.67;87.62;100672.94;10468828;28;20029;-77
2022/04/04 14:01:06;;;;;;;16.38;11.18;;;;;;;3.53;88.34;100674.50;10486914;28;20396;-79
2022/04/04 14:06:07;;;;;;;21.42;14.07;;;;;;;3.57;89.25;100665.28;10450745;28;20041;-80
2022/04/04 14:11:08;;;;;;;23.95;15.38;;;;;;;3.61;89.38;100668.97;10448771;28;20028;-79
2022/04/04 14:16:08;;;;;;;18.85;13.27;;;;;;;3.60;89.70;100659.41;10453924;28;20597;-82
2022/04/04 14:21:10;;;;;;;17.38;12.70;;;;;;;3.58;90.57;100642.88;10444516;28;20058;-78
2022/04/04 14:26:14;;;;;;;17.38;14.07;;;;;;;3.62;90.48;100634.53;10463470;28;20072;-79
2022/04/04 14:31:14;;;;;;;20.00;13.55;;;;;;;3.69;90.15;100641.09;10467817;28;20055;-79
2022/04/04 14:36:15;;;;;;;18.45;14.00;;;;;;;3.66;89.94;100633.97;10474217;28;20027;-77
2022/04/04 14:41:16;;;;;;;15.93;12.52;;;;;;;3.68;90.20;100627.22;10489022;28;20838;-79
2022/04/04 14:46:16;;;;;;;17.58;14.10;;;;;;;3.70;90.18;100606.63;10456595;28;20365;-79
2022/04/04 14:51:17;;;;;;;16.65;12.73;;;;;;;3.74;90.41;100622.47;10466848;28;20080;-79
2022/04/04 14:56:17;;;;;;;17.83;13.27;;;;;;;3.79;90.06;100608.19;10471423;28;20379;-77
2022/04/04 15:01:18;;;;;;;19.55;13.50;;;;;;;3.77;90.17;100617.53;10477630;28;20124;-78
2022/04/04 15:06:18;;;;;;;25.35;16.83;;;;;;;3.88;90.16;100614.78;10479142;28;20124;-78
2022/04/04 15:11:19;;;;;;;23.02;15.52;;;;;;;3.86;90.30;100601.75;10472906;28;20123;-79
2022/04/04 15:16:19;;;;;;;20.40;16.85;;;;;;;3.94;90.67;100586.75;10481146;28;20040;-79
2022/04/04 15:21:20;;;;;;;18.20;12.63;;;;;;;3.90;90.60;100598.59;10463632;28;20491;-78
2022/04/04 15:26:20;;;;;;;16.02;12.10;;;;;;;3.93;90.54;100596.22;10460108;28;20021;-78
2022/04/04 15:31:21;;;;;;;14.90;11.63;;;;;;;3.93;90.79;100559.06;10472620;28;20087;-77
2022/04/04 15:36:25;;;;;;;18.20;13.23;;;;;;;3.91;90.56;100577.09;10477344;28;20024;-77
2022/04/04 15:41:27;;;;;;;17.98;13.27;;;;;;;3.96;91.06;100562.75;10447463;28;20028;-77
2022/04/04 15:46:27;;;;;;;15.85;12.82;;;;;;;4.00;90.87;100565.56;10458119;28;20029;-77
2022/04/04 15:51:28;;;;;;;20.33;12.85;;;;;;;4.06;91.25;100561.69;10454298;28;20045;-77
2022/04/04 15:56:29;;;;;;;19.00;12.52;;;;;;;4.09;90.59;100571.38;10461648;28;20041;-76
2022/04/04 16:01:31;;;;;;;16.73;13.45;;;;;;;4.16;89.98;100567.50;10491150;28;20047;-77
2022/04/04 16:06:32;;;;;;;16.65;10.63;;;;;;;4.16;89.96;100567.50;10479457;28;20021;-76
2022/04/04 16:11:33;;;;;;;15.48;11.77;;;;;;;4.18;90.02;100558.16;10473366;28;20484;-78
2022/04/04 16:16:35;;;;;;;15.55;12.18;;;;;;;4.20;89.88;100559.16;10493977;28;20032;-77
2022/04/04 16:21:35;;;;;;;18.17;12.85;;;;;;;4.22;90.06;100554.97;10501590;28;20487;-78
2022/04/04 16:26:36;;;;;;;19.27;11.80;;;;;;;4.20;90.32;100549.69;10499184;28;20076;-78
2022/04/04 16:31:37;;;;;;;17.23;11.50;;;;;;;4.22;90.63;100552.38;10470148;28;20040;-77
2022/04/04 16:36:40;;;;;;;17.90;12.85;;;;;;;4.17;90.96;100518.41;10436248;28;20033;-77
2022/04/04 16:41:40;;;;;;;17.50;14.98;;;;;;;4.18;91.17;100543.53;10473996;28;20037;-77
2022/04/04 16:46:41;;;;;;;17.27;12.68;;;;;;;4.14;91.68;100538.94;10444881;28;20028;-77
2022/04/04 16:51:42;;;;;;;18.38;13.93;;;;;;;4.19;92.48;100541.81;10488882;28;20573;-75
2022/04/04 16:56:42;;;;;;;17.13;11.38;;;;;;;4.20;92.13;100538.44;10478159;28;20062;-77
2022/04/04 17:01:43;;;;;;;19.10;14.63;;;;;;;4.19;93.05;100531.44;10494879;28;20549;-77
2022/04/04 17:06:43;;;;;;;17.23;12.70;;;;;;;4.14;93.20;100523.38;10473476;28;20020;-77
2022/04/04 17:11:44;;;;;;;17.17;13.35;;;;;;;4.15;93.37;100529.44;10422947;28;20060;-77
2022/04/04 17:16:45;;;;;;;17.55;13.48;;;;;;;4.19;93.39;100532.38;10484680;28;20068;-76
2022/04/04 17:21:45;;;;;;;17.83;12.73;;;;;;;4.20;93.42;100525.47;10493657;28;20039;-77
2022/04/04 17:26:46;;;;;;;16.23;12.30;;;;;;;4.17;93.82;100525.28;10493888;28;20479;-78
2022/04/04 17:31:46;;;;;;;14.07;10.95;;;;;;;4.22;93.71;100523.88;10475398;28;20032;-79
2022/04/04 17:36:47;;;;;;;15.70;12.55;;;;;;;4.22;93.91;100517.03;10495117;28;20024;-77
2022/04/04 17:41:48;;;;;;;16.13;12.80;;;;;;;4.22;93.92;100500.56;10493699;28;20610;-79
2022/04/04 17:46:48;;;;;;;17.27;13.63;;;;;;;4.25;94.36;100480.06;10491558;28;20035;-78
2022/04/04 17:51:49;;;;;;;16.52;11.63;;;;;;;4.23;94.64;100479.06;10514607;28;20034;-78
2022/04/04 17:56:50;;;;;;;17.08;12.60;;;;;;;4.23;95.01;100498.09;10520714;28;20060;-79
2022/04/04 18:01:54;;;;;;;15.68;11.93;;;;;;;4.25;95.06;100493.00;10456175;28;20051;-79
2022/04/04 18:06:55;;;;;;;17.75;13.63;;;;;;;4.28;95.33;100487.16;10473162;28;20016;-79
2022/04/04 18:12:00;;;;;;;17.02;12.32;;;;;;;4.33;95.38;100488.34;10458627;28;20040;-79
2022/04/04 18:17:01;;;;;;;19.58;14.23;;;;;;;4.34;95.26;100479.78;10494625;28;20395;-78
2022/04/04 18:22:01;;;;;;;21.92;16.23;;;;;;;4.34;95.43;100496.22;10475228;28;20039;-79
2022/04/04 18:27:02;;;;;;;21.15;13.88;;;;;;;4.40;95.80;100500.91;10492277;28;20043;-77
2022/04/04 18:32:04;;;;;;;17.58;14.80;;;;;;;4.45;95.98;100494.34;10493070;28;20044;-77
2022/04/04 18:37:04;;;;;;;19.42;13.85;;;;;;;4.45;95.39;100496.03;10479139;28;20048;-77
2022/04/04 18:42:05;;;;;;;22.48;15.98;;;;;;;4.46;96.19;100501.34;10482642;28;20036;-78
2022/04/04 18:47:06;;;;;;;21.10;15.02;;;;;;;4.50;96.24;100487.78;10482445;28;20024;-78
2022/04/04 18:52:06;;;;;;;21.08;16.48;;;;;;;4.51;96.10;100496.44;10500972;28;20033;-78
2022/04/04 18:57:08;;;;;;;21.67;16.50;;;;;;;4.53;96.43;100497.44;10501772;28;20502;-78
2022/04/04 19:02:09;;;;;;;18.70;15.25;;;;;;;4.54;96.30;100478.50;10501094;28;20036;-78
2022/04/04 19:07:10;;;;;;;22.77;17.70;;;;;;;4.56;96.65;100482.09;10484435;28;20119;-78
2022/04/04 19:12:10;;;;;;;24.02;13.50;;;;;;;4.60;96.10;100488.38;10499561;28;20143;-78
2022/04/04 19:17:11;;;;;;;18.45;14.57;;;;;;;4.58;96.29;100482.19;10499357;28;20071;-78
2022/04/04 19:22:11;;;;;;;17.38;13.13;;;;;;;4.59;96.36;100476.22;10500241;28;20467;-78
2022/04/04 19:27:12;;;;;;;18.45;13.82;;;;;;;4.68;97.05;100471.63;10481359;28;20439;-77
2022/04/04 19:32:12;;;;;;;16.73;12.80;;;;;;;4.69;96.58;100463.06;10499919;28;20048;-78
2022/04/04 19:37:14;;;;;;;17.95;13.98;;;;;;;4.69;96.30;100474.31;10499091;28;20021;-78
2022/04/04 19:42:15;;;;;;;;;;;;;;;4.70;96.82;100470.03;10467227;28;20052;-77
2022/04/04 19:47:16;;;;;;;16.10;13.20;;;;;;;4.74;96.07;100474.63;10497100;28;19923;-77
2022/04/04 19:52:17;;;;;;;20.37;14.20;;;;;;;4.77;96.72;100461.84;10499244;28;20459;-76
2022/04/04 19:57:17;;;;;;;17.88;13.98;;;;;;;4.79;96.41;100478.41;10480033;28;20149;-76
2022/04/04 20:02:18;;;;;;;16.30;13.25;;;;;;;4.88;96.51;100464.25;10497364;28;20056;-77
2022/04/04 20:07:18;;;;;;;17.88;13.38;;;;;;;4.90;96.72;100473.03;10479313;28;20082;-76
2022/04/04 20:12:20;;;;;;;21.38;15.25;;;;;;;4.90;97.00;100473.91;10498125;28;20052;-76
2022/04/04 20:17:20;;;;;;;19.17;14.33;;;;;;;4.94;96.28;100465.53;10499427;28;20104;-77
2022/04/04 20:22:21;;;;;;;18.55;15.10;;;;;;;4.97;96.56;100455.34;10479681;28;20037;-77
2022/04/04 20:27:21;;;;;;;17.42;14.05;;;;;;;5.00;96.60;100459.84;10497421;28;20123;-77
2022/04/04 20:32:22;;;;;;;18.95;15.07;;;;;;;5.06;97.00;100457.63;10498593;28;20103;-76
2022/04/04 20:37:23;;;;;;;22.38;15.70;;;;;;;5.06;97.22;100457.63;10499043;28;20103;-78
2022/04/04 20:42:23;;;;;;;21.20;15.55;;;;;;;5.12;97.16;100446.72;10496521;28;20086;-77
2022/04/04 20:47:24;;;;;;;20.13;15.50;;;;;;;5.17;96.66;100447.91;10498324;28;20098;-77
2022/04/04 20:52:24;;;;;;;21.58;15.23;;;;;;;5.20;96.98;100429.94;10498171;28;20067;-77
2022/04/04 20:57:25;;;;;;;21.13;14.80;;;;;;;5.24;96.24;100431.03;10494864;28;20409;-77
2022/04/04 21:02:26;;;;;;;20.38;15.65;;;;;;;5.26;96.50;100419.94;10496075;28;20029;-77
2022/04/04 21:07:26;;;;;;;19.80;16.48;;;;;;;5.29;96.90;100414.94;10495735;28;20068;-77
2022/04/04 21:12:29;;;;;;;19.52;15.00;;;;;;;5.30;97.28;100405.47;10478582;28;20028;-76
2022/04/04 21:17:32;;;;;;;20.50;14.23;;;;;;;5.34;97.23;100385.78;10478308;28;20040;-76
2022/04/04 21:22:33;;;;;;;22.17;16.50;;;;;;;5.40;97.83;100412.13;10477793;28;20032;-76
2022/04/04 21:27:33;;;;;;;24.55;16.88;;;;;;;5.44;97.47;100402.03;10496548;28;20082;-77
2022/04/04 21:32:34;;;;;;;21.65;15.23;;;;;;;5.47;96.83;100403.91;10496311;28;20163;-76
2022/04/04 21:37:34;;;;;;;22.45;16.65;;;;;;;5.50;97.17;100380.72;10494567;28;20109;-76
2022/04/04 21:42:35;;;;;;;21.52;17.55;;;;;;;5.54;98.00;100400.00;10494914;28;20040;-78
2022/04/04 21:47:35;;;;;;;24.15;16.98;;;;;;;5.59;97.94;100396.84;10459924;28;20182;-77
2022/04/04 21:52:36;;;;;;;22.77;16.52;;;;;;;5.64;97.96;100391.94;10495623;28;20063;-76
2022/04/04 21:57:37;;;;;;;26.60;18.58;;;;;;;5.62;97.58;100400.44;10493696;28;20329;-76
2022/04/04 22:02:39;;;;;;;22.20;14.43;;;;;;;5.69;97.71;100390.53;10478036;28;20087;-76
2022/04/04 22:07:43;;;;;;;20.90;15.45;;;;;;;5.72;98.09;100392.38;10475876;28;20372;-76
2022/04/04 22:12:43;;;;;;;22.25;15.30;;;;;;;5.78;98.48;100390.16;10492951;28;20051;-77
2022/04/04 22:17:44;;;;;;;26.15;16.10;;;;;;;5.81;98.45;100387.75;10493522;28;20052;-76
2022/04/04 22:22:45;;;;;;;21.20;15.07;;;;;;;5.84;99.21;100403.50;10443540;28;20044;-77
2022/04/04 22:27:45;;;;;;;24.27;17.13;;;;;;;5.84;98.47;100387.91;10493917;28;20064;-76
2022/04/04 22:32:46;;;;;;;23.02;15.27;;;;;;;5.85;98.49;100391.44;10492523;28;20510;-76
2022/04/04 22:37:48;;;;;;;23.93;16.13;;;;;;;5.91;99.45;100393.47;10494093;28;20443;-76
2022/04/04 22:42:49;;;;;;;22.70;17.17;;;;;;;5.92;99.68;100379.69;10475355;28;20036;-76
2022/04/04 22:47:49;;;;;;;24.05;17.08;;;;;;;5.99;99.10;100374.03;10474984;28;20045;-76
2022/04/04 22:52:50;;;;;;;26.00;17.13;;;;;;;6.03;98.97;100383.84;10494929;28;20487;-77
2022/04/04 22:57:50;;;;;;;26.83;18.45;;;;;;;6.05;99.33;100383.94;10493171;28;20033;-77
2022/04/04 23:02:51;;;;;;;25.38;18.52;;;;;;;6.09;100.00;100384.19;10475159;28;20094;-77
2022/04/04 23:07:51;;;;;;;22.67;15.40;;;;;;;6.14;99.07;100377.56;10492939;28;20076;-77
2022/04/04 23:12:52;;;;;;;23.33;16.40;;;;;;;6.16;99.47;100382.88;10493552;28;20064;-76
2022/04/04 23:17:53;;;;;;;22.83;16.17;;;;;;;6.22;100.00;100377.09;10492779;28;20512;-77